Time;durP1;ratioP1;P1;durP2;ratioP2;P2;SDS_P1;SDS_P2;PMS_P1;PMS_P2;Temp;Humidity;BMP_temperature;BMP_pressure;BME280_temperature;BME280_humidity;BME280_pressure;Samples;Min_cycle;Max_cycle;Signal;HPM_P1;HPM_P2
2022/09/17 00:01:16;;;;;;;;;;;;;;;6.07;100.00;99424.59;5091859;28;19924;-86
2022/09/17 00:03:42;;;;;;;;;;;;;;;6.08;100.00;99428.94;5091814;28;20054;-86
2022/09/17 00:06:08;;;;;;;;;;;;;;;6.05;100.00;99427.28;5081030;28;19928;-86
2022/09/17 00:08:35;;;;;;;;;;;;;;;6.07;100.00;99429.88;5089641;28;19934;-84
2022/09/17 00:11:07;;;;;;;;;;;;;;;6.08;100.00;99434.19;5090744;28;19916;-87
2022/09/17 00:13:34;;;;;;;;;;;;;;;5.99;100.00;99433.56;5089907;28;19923;-90
2022/09/17 00:16:00;;;;;;;;;;;;;;;6.03;100.00;99446.63;5105475;28;19946;-84
2022/09/17 00:18:25;;;;;;;;;;;;;;;6.00;100.00;99450.22;5089728;28;19923;-91
2022/09/17 00:20:58;;;;;;;;;;;;;;;5.96;100.00;99449.44;5089620;28;19916;-87
2022/09/17 00:23:24;;;;;;;;;;;;;;;5.94;100.00;99447.75;5090083;28;20034;-85
2022/09/17 00:25:49;;;;;;;;;;;;;;;5.90;100.00;99449.59;5091509;28;20410;-88
2022/09/17 00:28:15;;;;;;;;;;;;;;;5.92;100.00;99444.28;5091085;28;19966;-87
2022/09/17 00:30:44;;;;;;;;;;;;;;;5.95;100.00;99447.69;5091320;28;19971;-87
2022/09/17 00:33:13;;;;;;;;;;;;;;;5.93;100.00;99453.91;5088430;28;20325;-86
2022/09/17 00:35:39;;;;;;;;;;;;;;;5.93;100.00;99451.28;5088891;28;19959;-86
2022/09/17 00:38:06;;;;;;;;;;;;;;;5.87;100.00;99447.06;5087241;28;19970;-87
2022/09/17 00:40:32;;;;;;;;;;;;;;;5.85;100.00;99440.13;5088416;28;20485;-86
2022/09/17 00:42:57;;;;;;;;;;;;;;;5.84;100.00;99441.91;5086809;28;19924;-87
2022/09/17 00:45:28;;;;;;;;;;;;;;;5.85;100.00;99437.50;5086133;28;19928;-91
2022/09/17 00:47:57;;;;;;;;;;;;;;;5.93;100.00;99449.50;5091402;28;19924;-88
2022/09/17 00:50:27;;;;;;;;;;;;;;;5.84;100.00;99441.91;5087781;28;20256;-85
2022/09/17 00:52:57;;;;;;;;;;;;;;;5.83;100.00;99440.16;5089884;28;19963;-88
2022/09/17 00:55:25;;;;;;;;;;;;;;;5.79;100.00;99441.16;5108232;28;19957;-86
2022/09/17 00:57:52;;;;;;;;;;;;;;;5.78;100.00;99439.44;5082353;28;19920;-89
2022/09/17 01:00:20;;;;;;;;;;;;;;;5.79;100.00;99436.78;5109739;28;19928;-87
2022/09/17 01:02:58;;;;;;;;;;;;;;;5.79;100.00;99435.88;5084711;28;19963;-93
2022/09/17 01:05:38;;;;;;;;;;;;;;;5.81;100.00;99442.84;5107663;28;19916;-88
2022/09/17 01:08:09;;;;;;;;;;;;;;;5.86;100.00;99447.13;5109919;28;19958;-89
2022/09/17 01:10:34;;;;;;;;;;;;;;;5.84;100.00;99439.28;5098825;28;20006;-91
2022/09/17 01:13:20;;;;;;;;;;;;;;;5.79;100.00;99446.41;5108969;28;20405;-87
2022/09/17 01:15:56;;;;;;;;;;;;;;;5.78;100.00;99439.44;5106166;28;20348;-90
2022/09/17 01:18:21;;;;;;;;;;;;;;;5.81;100.00;99440.22;5110357;28;19919;-91
2022/09/17 01:20:49;;;;;;;;;;;;;;;5.84;100.00;99436.63;5093318;28;19961;-90
2022/09/17 01:23:33;;;;;;;;;;;;;;;5.87;100.00;99443.56;5090718;28;19928;-89
2022/09/17 01:26:17;;;;;;;;;;;;;;;5.95;100.00;99446.81;5089685;28;19924;-90
2022/09/17 01:28:55;;;;;;;;;;;;;;;5.92;100.00;99455.69;5090869;28;19920;-86
2022/09/17 01:31:29;;;;;;;;;;;;;;;5.93;100.00;99456.53;5091724;28;19963;-86
2022/09/17 01:34:02;;;;;;;;;;;;;;;5.85;100.00;99467.25;5089338;28;19946;-90
2022/09/17 01:36:30;;;;;;;;;;;;;;;5.85;100.00;99466.41;5090260;28;19943;-86
2022/09/17 01:39:04;;;;;;;;;;;;;;;5.74;100.00;99464.09;5091826;28;19917;-88
2022/09/17 01:41:38;;;;;;;;;;;;;;;5.72;100.00;99466.75;5093099;28;19916;-87
2022/09/17 01:44:09;;;;;;;;;;;;;;;5.71;100.00;99469.44;5095635;28;19912;-86
2022/09/17 01:46:46;;;;;;;;;;;;;;;5.66;100.00;99476.59;5085984;28;19952;-87
2022/09/17 01:49:14;;;;;;;;;;;;;;;5.68;100.00;99474.75;5084902;28;19919;-87
2022/09/17 01:51:42;;;;;;;;;;;;;;;5.64;100.00;99468.75;5085109;28;19920;-89
2022/09/17 01:54:14;;;;;;;;;;;;;;;5.64;100.00;99472.22;5109605;28;19912;-86
2022/09/17 01:56:43;;;;;;;;;;;;;;;5.71;100.00;99479.94;5094888;28;20037;-86
2022/09/17 01:59:15;;;;;;;;;;;;;;;5.69;100.00;99468.63;5091506;28;20007;-86
2022/09/17 02:01:42;;;;;;;;;;;;;;;5.72;100.00;99465.91;5093642;28;20018;-87
2022/09/17 02:04:26;;;;;;;;;;;;;;;5.70;100.00;99468.56;5092424;28;20379;-88
2022/09/17 02:07:01;;;;;;;;;;;;;;;5.68;100.00;99465.13;5085127;28;19983;-92
2022/09/17 02:09:30;;;;;;;;;;;;;;;5.64;100.00;99474.84;5082491;28;19995;-91
2022/09/17 02:12:00;;;;;;;;;;;;;;;5.71;100.00;99472.06;5083922;28;19951;-89
2022/09/17 06:52:33;;;;;;;;;;;;;;;5.07;100.00;99593.69;4983701;28;20199;-86
2022/09/17 06:55:00;;;;;;;;;;;;;;;5.15;100.00;99596.13;4985409;28;19922;-87
2022/09/17 06:57:31;;;;;;;;;;;;;;;5.16;100.00;99588.22;4984156;28;20001;-86
2022/09/17 07:00:06;;;;;;;;;;;;;;;5.19;100.00;99601.28;4984814;28;20336;-90
2022/09/17 07:02:31;;;;;;;;;;;;;;;5.24;100.00;99595.91;4985027;28;19937;-89
2022/09/17 07:38:46;;;;;;;;;;;;;;;5.15;100.00;99602.22;5613892;23;19938;-86
2022/09/17 07:41:13;;;;;;;;;;;;;;;5.24;100.00;99591.50;4982708;28;19922;-87
2022/09/17 07:43:38;;;;;;;;;;;;;;;5.23;100.00;99596.81;4982738;28;19925;-87
2022/09/17 07:46:04;;;;;;;;;;;;;;;5.19;100.00;99605.66;4982797;28;20037;-88
2022/09/17 07:48:30;;;;;;;;;;;;;;;5.21;100.00;99606.50;4984010;28;19919;-86
2022/09/17 07:50:55;;;;;;;;;;;;;;;5.28;100.00;99594.91;4983823;28;20539;-88
2022/09/17 07:53:22;;;;;;;;;;;;;;;5.21;100.00;99602.09;4982632;28;20022;-86
2022/09/17 07:55:53;;;;;;;;;;;;;;;5.36;100.00;99611.38;4984219;28;19944;-85
2022/09/17 07:58:19;;;;;;;;;;;;;;;5.31;100.00;99607.13;4983198;28;19922;-85
2022/09/17 08:00:45;;;;;;;;;;;;;;;5.25;100.00;99613.41;4981608;28;19918;-86
2022/09/17 08:03:10;;;;;;;;;;;;;;;5.22;100.00;99616.09;4983598;28;20016;-85
2022/09/17 08:05:35;;;;;;;;;;;;;;;5.27;100.00;99612.47;4984204;28;19918;-86
2022/09/17 08:08:00;;;;;;;;;;;;;;;5.28;100.00;99618.56;4982316;28;19918;-84
2022/09/17 08:10:26;;;;;;;;;;;;;;;5.29;100.00;99620.31;4982221;28;19921;-83
2022/09/17 08:12:55;;;;;;;;;;;;;;;5.25;100.00;99622.16;4983865;28;19952;-86
2022/09/17 08:15:21;;;;;;;;;;;;;;;5.32;100.00;99622.00;4982402;28;20460;-86
2022/09/17 08:17:46;;;;;;;;;;;;;;;5.28;100.00;99624.69;4983217;28;20008;-85
2022/09/17 08:20:12;;;;;;;;;;;;;;;5.26;100.00;99625.63;4983215;28;19922;-86
2022/09/17 08:22:37;;;;;;;;;;;;;;;5.32;100.00;99622.00;4982573;28;19922;-86
2022/09/17 08:25:03;;;;;;;;;;;;;;;5.32;100.00;99624.63;4983398;28;19965;-86
2022/09/17 08:27:29;;;;;;;;;;;;;;;5.34;100.00;99613.16;4983431;28;19922;-85
2022/09/17 08:29:54;;;;;;;;;;;;;;;5.26;100.00;99616.00;4983203;28;19917;-87
2022/09/17 08:32:20;;;;;;;;;;;;;;;5.24;100.00;99612.53;4983456;28;19974;-85
2022/09/17 08:34:45;;;;;;;;;;;;;;;5.33;100.00;99616.72;4983244;28;19918;-86
2022/09/17 08:37:10;;;;;;;;;;;;;;;5.31;100.00;99618.50;4981535;28;19941;-85
2022/09/17 08:39:35;;;;;;;;;;;;;;;5.29;100.00;99617.69;4980681;28;19921;-86
2022/09/17 08:42:08;;;;;;;;;;;;;;;5.28;100.00;99624.69;4983333;28;19925;-83
2022/09/17 08:44:44;;;;;;;;;;;;;;;5.28;100.00;99619.44;4982910;28;20343;-83
2022/09/17 08:47:21;;;;;;;;;;;;;;;5.28;100.00;99618.56;4982379;28;19922;-86
2022/09/17 08:49:52;;;;;;;;;;;;;;;5.25;100.00;99616.03;4982597;28;19985;-86
2022/09/17 08:52:36;;;;;;;;;;;;;;;5.30;100.00;99621.16;4983115;28;19918;-85
2022/09/17 08:55:06;;;;;;;;;;;;;;;5.31;100.00;99622.91;4982538;28;19929;-85
2022/09/17 08:57:50;;;;;;;;;;;;;;;5.27;100.00;99620.34;4982328;28;20029;-85
2022/09/17 09:00:19;;;;;;;;;;;;;;;5.29;100.00;99622.94;4982553;28;19929;-86
2022/09/17 09:02:47;;;;;;;;;;;;;;;5.26;100.00;99618.63;4982083;28;21348;-87
2022/09/17 09:05:16;;;;;;;;;;;;;;;5.25;100.00;99621.28;4982631;28;19922;-86
2022/09/17 09:07:46;;;;;;;;;;;;;;;5.27;100.00;99622.13;4981035;28;20008;-83
2022/09/17 09:10:14;;;;;;;;;;;;;;;5.30;100.00;99618.53;4980653;28;20259;-84
2022/09/17 09:12:40;;;;;;;;;;;;;;;5.23;100.00;99623.97;4982629;28;19922;-84
2022/09/17 09:15:14;;;;;;;;;;;;;;;5.26;100.00;99625.63;4982852;28;19922;-89
2022/09/17 09:17:43;;;;;;;;;;;;;;;5.38;100.00;99624.50;4981438;28;19918;-86
2022/09/17 09:20:16;;;;;;;;;;;;;;;5.34;100.00;99625.44;4982778;28;20266;-87
2022/09/17 09:22:49;;;;;;;;;;;;;;;5.35;100.00;99619.31;4980472;28;19940;-85
2022/09/17 09:25:14;;;;;;;;;;;;;;;5.32;100.00;99629.88;4982071;28;19973;-87
2022/09/17 09:27:46;;;;;;;;;;;;;;;5.25;100.00;99624.78;4982958;28;19921;-87
2022/09/17 09:30:13;;;;;;;;;;;;;;;5.26;100.00;99626.50;4981647;28;19918;-87
2022/09/17 09:32:57;;;;;;;;;;;;;;;5.26;100.00;99626.50;4982485;28;19919;-86
2022/09/17 09:35:26;;;;;;;;;;;;;;;5.33;100.00;99621.09;4981371;28;19925;-87
2022/09/17 09:38:10;;;;;;;;;;;;;;;5.29;100.00;99625.56;4980348;28;19918;-87
2022/09/17 09:40:45;;;;;;;;;;;;;;;5.27;100.00;99622.97;4982088;28;19928;-85
2022/09/17 09:43:20;;;;;;;;;;;;;;;5.33;100.00;99631.59;4981342;28;20028;-87
2022/09/17 09:45:56;;;;;;;;;;;;;;;5.32;100.00;99625.50;4981749;28;19925;-87
2022/09/17 09:48:40;;;;;;;;;;;;;;;5.39;100.00;99627.09;4982466;28;19922;-87
2022/09/17 09:51:08;;;;;;;;;;;;;;;5.36;100.00;99626.25;4981885;28;19926;-88
2022/09/17 09:53:44;;;;;;;;;;;;;;;5.30;100.00;99611.53;4981459;28;19922;-84
2022/09/17 09:56:28;;;;;;;;;;;;;;;5.36;100.00;99632.41;4980957;28;19918;-85
2022/09/17 09:58:54;;;;;;;;;;;;;;;5.35;100.00;99635.06;4982584;28;20411;-87
2022/09/17 10:01:21;;;;;;;;;;;;;;;5.32;100.00;99632.50;4980928;28;19919;-86
2022/09/17 10:03:56;;;;;;;;;;;;;;;5.30;100.00;99631.66;4968085;28;19922;-91
2022/09/17 10:06:22;;;;;;;;;;;;;;;5.33;100.00;99628.97;4985714;28;19922;-87
2022/09/17 10:08:50;;;;;;;;;;;;;;;5.31;100.00;99633.41;4984818;28;19918;-85
2022/09/17 10:11:20;;;;;;;;;;;;;;;5.36;100.00;99631.53;4985042;28;19922;-88
2022/09/17 10:14:11;;;;;;;;;;;;;;;5.35;100.00;99635.94;4986036;28;20385;-84
2022/09/17 10:16:37;;;;;;;;;;;;;;;5.33;100.00;99640.38;4970083;28;19929;-87
2022/09/17 10:19:02;;;;;;;;;;;;;;;5.38;100.00;99625.34;4985785;28;19921;-89
2022/09/17 10:21:31;;;;;;;;;;;;;;;5.30;100.00;99621.16;4985635;28;20005;-87
2022/09/17 10:23:57;;;;;;;;;;;;;;;5.32;100.00;99629.88;4984271;28;19922;-88
2022/09/17 10:26:24;;;;;;;;;;;;;;;5.31;100.00;99620.25;4985581;28;20288;-84
2022/09/17 10:29:05;;;;;;;;;;;;;;;5.37;100.00;99628.00;4984479;28;19926;-88
2022/09/17 10:31:47;;;;;;;;;;;;;;;5.39;100.00;99620.94;4984815;28;19921;-87
2022/09/17 10:34:38;;;;;;;;;;;;;;;5.33;100.00;99621.09;4983880;28;19922;-91
2022/09/17 10:37:04;;;;;;;;;;;;;;;5.35;100.00;99625.41;4984742;28;19918;-87
2022/09/17 10:39:33;;;;;;;;;;;;;;;5.32;100.00;99625.50;4983429;28;19933;-84
2022/09/17 10:42:03;;;;;;;;;;;;;;;5.35;100.00;99629.81;4984522;28;19988;-86
2022/09/17 10:44:30;;;;;;;;;;;;;;;5.32;100.00;99630.75;4984927;28;19929;-85
2022/09/17 10:47:01;;;;;;;;;;;;;;;5.31;100.00;99625.53;4985747;28;20020;-86
2022/09/17 10:49:26;;;;;;;;;;;;;;;5.52;100.00;99624.13;4984482;28;20346;-87
2022/09/17 10:52:02;;;;;;;;;;;;;;;5.44;100.00;99624.31;4984107;28;20008;-88
2022/09/17 10:54:47;;;;;;;;;;;;;;;5.38;100.00;99620.09;4982492;28;19922;-85
2022/09/17 10:57:20;;;;;;;;;;;;;;;5.33;100.00;99616.72;4980009;28;19972;-87
2022/09/17 10:59:57;;;;;;;;;;;;;;;5.35;100.00;99616.69;4985040;28;20364;-88
2022/09/17 11:02:43;;;;;;;;;;;;;;;5.39;100.00;99621.81;4984505;28;19929;-88
2022/09/17 11:05:24;;;;;;;;;;;;;;;5.34;100.00;99625.44;4983996;28;19981;-86
2022/09/17 11:07:57;;;;;;;;;;;;;;;5.22;100.00;99619.59;4983974;28;20045;-87
2022/09/17 11:10:32;;;;;;;;;;;;;;;5.32;100.00;99609.72;4984291;28;20543;-84
2022/09/17 11:13:03;;;;;;;;;;;;;;;5.31;100.00;99605.34;4984645;28;19962;-86
2022/09/17 11:15:38;;;;;;;;;;;;;;;5.36;100.00;99600.00;4984390;28;19922;-96
2022/09/17 11:18:22;;;;;;;;;;;;;;;5.36;100.00;99597.38;4984571;28;19975;-84
2022/09/17 11:20:57;;;;;;;;;;;;;;;5.32;100.00;99593.09;4984456;28;20388;-83
2022/09/17 11:23:38;;;;;;;;;;;;;;;5.26;100.00;99581.84;4982783;28;20348;-86
2022/09/17 11:26:15;;;;;;;;;;;;;;;5.39;100.00;99589.41;4982948;28;20049;-86
2022/09/17 11:29:05;;;;;;;;;;;;;;;5.43;100.00;99596.31;4984311;28;19918;-87
2022/09/17 11:31:40;;;;;;;;;;;;;;;5.41;100.00;99585.00;4981885;28;19921;-87
2022/09/17 11:34:21;;;;;;;;;;;;;;;5.31;100.00;99592.22;4983874;28;19929;-86
2022/09/17 11:36:55;;;;;;;;;;;;;;;5.34;100.00;99580.78;4984470;28;20269;-88
2022/09/17 11:39:24;;;;;;;;;;;;;;;5.31;100.00;99584.34;4980292;28;20385;-88
2022/09/17 11:41:51;;;;;;;;;;;;;;;5.34;100.00;99586.03;4984437;28;19918;-87
2022/09/17 11:44:28;;;;;;;;;;;;;;;5.34;100.00;99580.78;4983210;28;19929;-89
2022/09/17 11:47:01;;;;;;;;;;;;;;;5.27;100.00;99565.16;4983283;28;19933;-87
2022/09/17 11:49:38;;;;;;;;;;;;;;;5.27;100.00;99567.78;4998936;28;19917;-86
2022/09/17 11:52:10;;;;;;;;;;;;;;;5.29;100.00;99562.50;4981929;28;19925;-87
2022/09/17 11:54:45;;;;;;;;;;;;;;;5.34;100.00;99573.75;4982976;28;19928;-83
2022/09/17 11:57:13;;;;;;;;;;;;;;;5.38;100.00;99570.16;4982613;28;19917;-86
2022/09/17 12:02:41;;;;;;;;;;;;;;;10.00;100.00;99561.41;4984074;28;20082;-87
2022/09/17 12:05:16;;;;;;;;;;;;;;;6.94;100.00;99564.94;4982608;28;19970;-87
2022/09/17 12:07:47;;;;;;;;;;;;;;;6.10;100.00;99561.31;4981054;28;20000;-87
2022/09/17 12:10:31;;;;;;;;;;;;;;;5.98;100.00;99563.38;4982174;28;19922;-86
2022/09/17 12:18:39;;;;;;;;;;;;;;;5.63;100.00;99561.63;4983188;28;20377;-91
2022/09/17 12:21:09;;;;;;;;;;;;;;;5.72;100.00;99550.88;4984190;28;20001;-93
2022/09/17 12:23:48;;;;;;;;;;;;;;;5.60;100.00;99552.09;4980061;28;19974;-89
2022/09/17 12:26:19;;;;;;;;;;;;;;;5.54;100.00;99552.25;4981263;28;19923;-91
2022/09/17 12:29:01;;;;;;;;;;;;;;;5.72;100.00;99544.78;4996674;28;20259;-89
2022/09/17 12:31:35;;;;;;;;;;;;;;;5.74;100.00;99556.09;4983197;28;19921;-87
2022/09/17 12:34:11;;;;;;;;;;;;;;;5.61;100.00;99558.19;4983404;28;19922;-86
2022/09/17 12:36:47;;;;;;;;;;;;;;;5.75;100.00;99557.84;4982602;28;20012;-89
2022/09/17 12:39:12;;;;;;;;;;;;;;;5.54;100.00;99556.66;4980691;28;19918;-87
2022/09/17 12:42:10;;;;;;;;;;;;;;;5.51;100.00;99551.47;4983792;28;19929;-86
2022/09/17 12:44:35;;;;;;;;;;;;;;;5.63;100.00;99543.22;4971476;28;19918;-91
2022/09/17 12:47:00;;;;;;;;;;;;;;;5.68;100.00;99545.75;4983346;28;19981;-87
2022/09/17 12:49:44;;;;;;;;;;;;;;;5.77;100.00;99545.50;4982896;28;19918;-89
2022/09/17 12:52:16;;;;;;;;;;;;;;;5.61;100.00;99548.53;4983089;28;19925;-86
2022/09/17 12:55:00;;;;;;;;;;;;;;;5.68;100.00;99544.00;4981496;28;19921;-87
2022/09/17 12:57:34;;;;;;;;;;;;;;;5.66;100.00;99551.03;4982250;28;20262;-87
2022/09/17 13:00:00;;;;;;;;;;;;;;;5.55;100.00;99548.72;4982252;28;20321;-91
2022/09/17 13:02:29;;;;;;;;;;;;;;;5.50;100.00;99532.19;4981961;28;20004;-89
2022/09/17 13:05:13;;;;;;;;;;;;;;;5.45;100.00;99534.06;4982767;28;20406;-89
2022/09/17 13:07:42;;;;;;;;;;;;;;;5.52;100.00;99538.28;4981532;28;20407;-90
2022/09/17 13:10:22;;;;;;;;;;;;;;;5.48;100.00;99543.66;4983208;28;19921;-92
2022/09/17 13:12:59;;;;;;;;;;;;;;;5.57;100.00;99533.75;4983187;28;19924;-87
2022/09/17 13:15:56;;;;;;;;;;;;;;;5.50;100.00;99537.44;4982438;28;19964;-86
2022/09/17 13:18:38;;;;;;;;;;;;;;;5.44;100.00;99537.59;4970540;28;19922;-89
2022/09/17 13:21:13;;;;;;;;;;;;;;;5.39;100.00;99543.00;4982625;28;20372;-88
2022/09/17 13:23:49;;;;;;;;;;;;;;;5.42;100.00;99547.28;4980269;28;19922;-86
2022/09/17 13:26:18;;;;;;;;;;;;;;;5.43;100.00;99549.88;4982698;28;19951;-88
2022/09/17 13:28:43;;;;;;;;;;;;;;;5.40;100.00;99541.22;4981485;28;19944;-90
2022/09/17 13:31:10;;;;;;;;;;;;;;;5.42;100.00;99547.28;4982276;28;19918;-88
2022/09/17 13:33:55;;;;;;;;;;;;;;;5.37;100.00;99549.19;4981174;28;19918;-89
2022/09/17 13:36:37;;;;;;;;;;;;;;;5.31;100.00;99544.06;4983771;28;19972;-88
2022/09/17 13:39:04;;;;;;;;;;;;;;;5.31;100.00;99549.31;4983128;28;19958;-90
2022/09/17 13:41:31;;;;;;;;;;;;;;;5.33;100.00;99558.91;4983859;28;19922;-87
2022/09/17 13:43:57;;;;;;;;;;;;;;;5.32;100.00;99553.69;4986219;28;20341;-86
2022/09/17 13:46:41;;;;;;;;;;;;;;;5.30;100.00;99553.72;4986380;28;19926;-93
2022/09/17 13:49:14;;;;;;;;;;;;;;;5.30;100.00;99550.22;4985960;28;19918;-88
2022/09/17 13:51:39;;;;;;;;;;;;;;;5.38;100.00;99550.91;4986461;28;19940;-89
2022/09/17 13:54:06;;;;;;;;;;;;;;;5.49;100.00;99554.13;4984980;28;20425;-86
2022/09/17 13:56:35;;;;;;;;;;;;;;;5.37;100.00;99555.28;4985084;28;19918;-91
2022/09/17 13:59:05;;;;;;;;;;;;;;;5.50;100.00;99561.09;4986534;28;19921;-90
2022/09/17 14:01:49;;;;;;;;;;;;;;;5.37;100.00;99559.69;4984922;28;19929;-90
2022/09/17 14:04:45;;;;;;;;;;;;;;;5.38;100.00;99566.69;4986066;28;19918;-87
2022/09/17 14:07:19;;;;;;;;;;;;;;;5.33;100.00;99558.91;4986981;28;19929;-87
2022/09/17 14:09:49;;;;;;;;;;;;;;;5.34;100.00;99570.28;4983992;28;19921;-92
2022/09/17 14:12:33;;;;;;;;;;;;;;;5.28;100.00;99571.28;4985417;28;20401;-88
2022/09/17 14:14:58;;;;;;;;;;;;;;;5.26;100.00;99568.72;4985509;28;19977;-90
2022/09/17 14:17:46;;;;;;;;;;;;;;;5.32;100.00;99572.09;4987159;28;20289;-91
2022/09/17 14:20:12;;;;;;;;;;;;;;;5.33;100.00;99573.78;4985472;28;20373;-89
2022/09/17 14:22:37;;;;;;;;;;;;;;;5.33;100.00;99572.06;4984603;28;19975;-87
2022/09/17 14:25:02;;;;;;;;;;;;;;;5.37;100.00;99571.06;4984477;28;19980;-87
2022/09/17 14:27:43;;;;;;;;;;;;;;;5.26;100.00;99576.59;4984183;28;19921;-89
2022/09/17 14:30:11;;;;;;;;;;;;;;;5.30;100.00;99579.13;4984271;28;19929;-91
2022/09/17 14:32:41;;;;;;;;;;;;;;;5.33;100.00;99581.66;4985686;28;19970;-89
2022/09/17 14:35:19;;;;;;;;;;;;;;;5.34;100.00;99581.63;4984791;28;20400;-88
2022/09/17 14:37:47;;;;;;;;;;;;;;;5.31;100.00;99583.47;4982134;28;19977;-88
2022/09/17 14:40:17;;;;;;;;;;;;;;;5.34;100.00;99567.66;4986536;28;20372;-92
2022/09/17 14:42:43;;;;;;;;;;;;;;;5.24;100.00;99572.25;4985311;28;19918;-87
2022/09/17 14:45:34;;;;;;;;;;;;;;;5.24;100.00;99573.13;4985948;28;19979;-88
2022/09/17 14:48:25;;;;;;;;;;;;;;;5.32;100.00;99577.34;4984280;28;20001;-92
2022/09/17 14:50:50;;;;;;;;;;;;;;;5.52;100.00;99580.34;4984938;28;19929;-88
2022/09/17 14:53:17;;;;;;;;;;;;;;;5.41;100.00;99580.59;4984305;28;19918;-87
2022/09/17 14:55:43;;;;;;;;;;;;;;;5.30;100.00;99579.13;4985478;28;19918;-87
2022/09/17 14:58:28;;;;;;;;;;;;;;;5.34;100.00;99575.53;4983681;28;19918;-89
2022/09/17 15:00:54;;;;;;;;;;;;;;;5.24;100.00;99570.50;4985162;28;20373;-89
2022/09/17 15:03:22;;;;;;;;;;;;;;;5.21;100.00;99581.06;4984410;28;19926;-93
2022/09/17 15:05:49;;;;;;;;;;;;;;;5.26;100.00;99576.59;4984507;28;19921;-88
2022/09/17 15:08:20;;;;;;;;;;;;;;;5.39;100.00;99584.16;4983929;28;19918;-89
2022/09/17 15:10:50;;;;;;;;;;;;;;;5.28;100.00;99581.78;4984863;28;19918;-90
2022/09/17 15:13:26;;;;;;;;;;;;;;;5.24;100.00;99590.66;4984698;28;20004;-86
2022/09/17 15:15:56;;;;;;;;;;;;;;;5.21;100.00;99588.94;4984444;28;19928;-87
2022/09/17 15:18:28;;;;;;;;;;;;;;;5.25;100.00;99588.00;4983761;28;20591;-85
2022/09/17 15:20:54;;;;;;;;;;;;;;;5.27;100.00;99586.19;4984590;28;19926;-87
2022/09/17 15:23:24;;;;;;;;;;;;;;;5.31;100.00;99576.47;4979363;28;20845;-89
2022/09/17 15:25:51;;;;;;;;;;;;;;;5.33;100.00;99579.94;4964785;28;19926;-85
2022/09/17 15:28:36;;;;;;;;;;;;;;;5.34;100.00;99581.63;4963795;28;19973;-87
2022/09/17 15:31:04;;;;;;;;;;;;;;;5.38;100.00;99587.69;4964269;28;19978;-89
2022/09/17 15:33:30;;;;;;;;;;;;;;;5.37;100.00;99593.84;4964342;28;19926;-86
2022/09/17 15:36:00;;;;;;;;;;;;;;;5.38;100.00;99598.22;4964354;28;20001;-87
2022/09/17 15:38:26;;;;;;;;;;;;;;;5.35;100.00;99600.91;4963532;28;19918;-94
2022/09/17 15:40:52;;;;;;;;;;;;;;;5.25;100.00;99598.50;4965860;28;19977;-90
2022/09/17 15:43:24;;;;;;;;;;;;;;;5.31;100.00;99601.88;4965512;28;20393;-91
2022/09/17 15:45:49;;;;;;;;;;;;;;;5.33;100.00;99595.69;4963558;28;20389;-87
2022/09/17 15:48:20;;;;;;;;;;;;;;;5.44;100.00;99598.91;4964864;28;19918;-87
2022/09/17 15:50:51;;;;;;;;;;;;;;;5.36;100.00;99605.25;4964506;28;19946;-87
2022/09/17 15:53:27;;;;;;;;;;;;;;;5.38;100.00;99600.84;4963227;28;19918;-89
2022/09/17 15:56:04;;;;;;;;;;;;;;;5.43;100.00;99602.44;4964070;28;19922;-90
2022/09/17 15:58:35;;;;;;;;;;;;;;;5.37;100.00;99617.50;4979487;28;19985;-89
2022/09/17 16:01:16;;;;;;;;;;;;;;;5.41;100.00;99613.91;4962516;28;19926;-87
2022/09/17 16:03:44;;;;;;;;;;;;;;;5.43;100.00;99618.19;4964162;28;19929;-90
2022/09/17 16:06:18;;;;;;;;;;;;;;;5.38;100.00;99614.84;4964842;28;19922;-90
2022/09/17 16:08:46;;;;;;;;;;;;;;;5.41;100.00;99608.66;4962789;28;19923;-88
2022/09/17 16:11:14;;;;;;;;;;;;;;;5.36;100.00;99613.13;4963072;28;19925;-93
2022/09/17 16:13:52;;;;;;;;;;;;;;;5.35;100.00;99612.28;4964513;28;20318;-91
2022/09/17 16:16:25;;;;;;;;;;;;;;;5.24;100.00;99615.16;4962791;28;19922;-89
2022/09/17 16:18:51;;;;;;;;;;;;;;;5.22;100.00;99619.59;4962900;28;19929;-92
2022/09/17 16:21:18;;;;;;;;;;;;;;;5.26;100.00;99616.00;4963919;28;19918;-89
2022/09/17 16:27:18;;;;;;;;;;;;;;;5.25;100.00;99635.28;4945946;28;19930;-90
2022/09/17 16:29:44;;;;;;;;;;;;;;;5.32;100.00;99632.50;4971374;28;20441;-90
2022/09/17 16:32:10;;;;;;;;;;;;;;;5.22;100.00;99637.13;4966289;28;19918;-89
2022/09/17 16:34:35;;;;;;;;;;;;;;;5.17;100.00;99639.84;4963854;28;19923;-90
2022/09/17 16:37:00;;;;;;;;;;;;;;;5.20;100.00;99637.16;4963854;28;19973;-88
2022/09/17 16:39:25;;;;;;;;;;;;;;;5.15;100.00;99633.75;4962280;28;20017;-92
2022/09/17 16:41:50;;;;;;;;;;;;;;;5.25;100.00;99640.53;4962998;28;19929;-88
2022/09/17 16:44:16;;;;;;;;;;;;;;;5.19;100.00;99645.06;4963921;28;20293;-87
2022/09/17 16:46:41;;;;;;;;;;;;;;;5.21;100.00;99635.38;4963205;28;19965;-90
2022/09/17 16:49:06;;;;;;;;;;;;;;;5.16;100.00;99640.75;4963575;28;19989;-91
2022/09/17 16:51:35;;;;;;;;;;;;;;;5.19;100.00;99640.69;4963849;28;19918;-92
2022/09/17 16:54:00;;;;;;;;;;;;;;;5.17;100.00;99637.22;4962340;28;19918;-92
2022/09/17 16:56:25;;;;;;;;;;;;;;;5.27;100.00;99640.50;4963444;28;20358;-92
2022/09/17 16:58:54;;;;;;;;;;;;;;;5.17;100.00;99631.97;4963635;28;19922;-94
2022/09/17 17:01:37;;;;;;;;;;;;;;;5.24;100.00;99638.78;4962290;28;19919;-88
2022/09/17 17:04:03;;;;;;;;;;;;;;;5.33;100.00;99631.59;4963305;28;20429;-89
2022/09/17 17:06:28;;;;;;;;;;;;;;;5.23;100.00;99637.09;4963866;28;20017;-90
2022/09/17 17:11:31;;;;;;;;;;;;;;;5.23;100.00;99642.34;4987888;23;20381;-91
2022/09/17 17:14:20;;;;;;;;;;;;;;;5.24;100.00;99648.44;4977645;28;19965;-90
2022/09/17 17:16:45;;;;;;;;;;;;;;;5.24;100.00;99654.56;4972059;28;19926;-88
2022/09/17 17:19:10;;;;;;;;;;;;;;;5.27;100.00;99653.63;4983405;28;19981;-92
2022/09/17 17:21:36;;;;;;;;;;;;;;;5.21;100.00;99649.38;4980566;28;19918;-91
2022/09/17 17:24:18;;;;;;;;;;;;;;;5.25;100.00;99661.56;4979199;28;19925;-86
2022/09/17 17:26:45;;;;;;;;;;;;;;;5.36;100.00;99652.53;4980934;28;19925;-89
2022/09/17 17:29:11;;;;;;;;;;;;;;;5.24;100.00;99661.59;4982883;28;20549;-88
2022/09/17 17:31:36;;;;;;;;;;;;;;;5.22;100.00;99666.03;4981540;28;19918;-89
2022/09/17 17:34:01;;;;;;;;;;;;;;;5.27;100.00;99675.50;4982262;28;19922;-87
2022/09/17 17:36:27;;;;;;;;;;;;;;;5.22;100.00;99672.13;4982552;28;19953;-89
2022/09/17 17:38:58;;;;;;;;;;;;;;;5.15;100.00;99675.78;4981088;28;19924;-94
2022/09/17 17:41:26;;;;;;;;;;;;;;;5.22;100.00;99687.88;4982540;28;19965;-92
2022/09/17 17:43:54;;;;;;;;;;;;;;;5.18;100.00;99683.59;4981896;28;19989;-94
2022/09/17 17:46:20;;;;;;;;;;;;;;;5.23;100.00;99689.63;4982251;28;19926;-93
2022/09/17 17:48:53;;;;;;;;;;;;;;;5.30;100.00;99689.47;4979120;28;19961;-93
2022/09/17 17:51:22;;;;;;;;;;;;;;;5.27;100.00;99687.78;4979133;28;19923;-89
2022/09/17 17:53:48;;;;;;;;;;;;;;;5.27;100.00;99686.03;4974499;28;19930;-90
2022/09/17 17:56:55;;;;;;;;;;;;;;;;;;;;;
2022/09/17 17:59:21;;;;;;;;;;;;;;;5.24;100.00;99686.09;4978922;28;19932;-87
2022/09/17 18:01:46;;;;;;;;;;;;;;;5.23;100.00;99684.38;4982310;28;20001;-88
2022/09/17 18:04:12;;;;;;;;;;;;;;;5.23;100.00;99687.00;4985271;23;20025;-87
2022/09/17 18:06:57;;;;;;;;;;;;;;;5.36;100.00;99694.59;4981423;28;19918;-91
2022/09/17 18:09:22;;;;;;;;;;;;;;;5.35;100.00;99695.50;4981998;28;19988;-91
2022/09/17 18:11:48;;;;;;;;;;;;;;;5.32;100.00;99698.19;4981718;28;20358;-90
2022/09/17 18:14:25;;;;;;;;;;;;;;;5.25;100.00;99698.34;4976435;28;19922;-94
2022/09/17 18:19:20;;;;;;;;;;;;;;;5.32;100.00;99706.09;4987315;23;19926;-92
2022/09/17 18:25:06;;;;;;;;;;;;;;;5.25;100.00;99703.59;5252126;23;19960;-91
2022/09/17 18:27:31;;;;;;;;;;;;;;;5.23;100.00;99697.50;4981017;28;19922;-92
2022/09/17 18:30:04;;;;;;;;;;;;;;;5.30;100.00;99710.47;4984119;28;20440;-94
2022/09/17 18:32:29;;;;;;;;;;;;;;;5.32;100.00;99709.56;4985688;28;19980;-89
2022/09/17 18:34:55;;;;;;;;;;;;;;;5.39;100.00;99708.53;4985470;28;20481;-90
2022/09/17 18:43:03;;;;;;;;;;;;;;;5.51;100.00;99712.63;4991812;23;19926;-92
2022/09/17 18:45:28;;;;;;;;;;;;;;;5.58;100.00;99722.09;4982927;28;20495;-93
2022/09/17 18:47:54;;;;;;;;;;;;;;;5.60;100.00;99720.31;4981494;28;20009;-91